Terminal Aerodrome Forecast
Issued by NWS

Home | Current Version | Previous Version | Text Only | Print | Product List | Glossary On
Versions: 1 2 3 4 5 6 7 8 9 10 11 12 13
000
FTUS45 KRIW 060533
TAFWRL
TAF
KWRL 060533Z 0606/0706 36010KT 4SM -SHRA BR SCT008 OVC015
     FM061200 31008KT 4SM BR VCFG FEW005 OVC015
     FM061600 VRB05KT P6SM OVC025
     FM061900 VRB05KT P6SM SCT025 BKN040
     FM070100 14005KT P6SM SCT060=

USA.gov is the U.S. government's official web portal to all federal, state and local government web resources and services.